createdAt,value
2024-03-06T00:02:08.665Z,101296.09
2024-03-06T00:04:36.358Z,101297.56
2024-03-06T00:07:03.154Z,101297.16
2024-03-06T00:09:30.097Z,101293.03
2024-03-06T00:11:58.593Z,101299.09
2024-03-06T00:14:25.595Z,101299.41
2024-03-06T00:16:52.783Z,101298.06
2024-03-06T00:19:20.222Z,101305.16
2024-03-06T00:21:47.133Z,101313.94
2024-03-06T00:24:16.962Z,101313.94
2024-03-06T00:26:45.619Z,101309.34
2024-03-06T00:29:12.836Z,101316.38
2024-03-06T00:31:44.495Z,101316.56
2024-03-06T00:34:12.655Z,101315.66
2024-03-06T00:36:39.659Z,101316.38
2024-03-06T00:39:06.398Z,101316.78
2024-03-06T00:41:33.177Z,101323.31
2024-03-06T00:44:00.036Z,101320.66
2024-03-06T00:46:26.958Z,101322.34
2024-03-06T00:48:53.909Z,101324.59
2024-03-06T00:51:26.888Z,101326.78
2024-03-06T00:53:59.688Z,101332.25
2024-03-06T00:56:26.741Z,101337.75
2024-03-06T00:58:53.535Z,101336.97
2024-03-06T01:01:20.519Z,101341.63
2024-03-06T01:03:47.284Z,101338.34
2024-03-06T01:06:14.072Z,101347.75
2024-03-06T01:08:40.802Z,101342.13
2024-03-06T01:11:07.967Z,101349.84
2024-03-06T01:13:34.809Z,101351.31
2024-03-06T01:16:01.582Z,101360.16
2024-03-06T01:18:28.354Z,101355.19
2024-03-06T01:20:55.274Z,101357.50
2024-03-06T01:23:22.000Z,101354.97
2024-03-06T01:25:48.765Z,101354.75
2024-03-06T01:28:15.578Z,101358.41
2024-03-06T01:30:42.292Z,101364.53
2024-03-06T01:33:09.058Z,101370.59
2024-03-06T01:35:35.828Z,101370.97
2024-03-06T01:38:02.855Z,101371.81
2024-03-06T01:40:30.722Z,101371.13
2024-03-06T01:42:57.671Z,101374.78
2024-03-06T01:45:24.398Z,101367.94
2024-03-06T01:47:52.044Z,101371.09
2024-03-06T01:50:19.580Z,101372.78
2024-03-06T01:52:47.448Z,101366.78
2024-03-06T01:55:15.196Z,101367.88
2024-03-06T01:57:42.696Z,101377.16
2024-03-06T02:00:15.078Z,101371.03
2024-03-06T02:02:43.470Z,101370.13
2024-03-06T02:05:10.844Z,101366.69
2024-03-06T02:07:40.691Z,101370.75
2024-03-06T02:10:11.095Z,101369.78
2024-03-06T02:12:38.342Z,101373.06
2024-03-06T02:15:05.936Z,101382.63
2024-03-06T02:17:32.728Z,101380.56
2024-03-06T02:19:59.905Z,101379.00
2024-03-06T02:22:26.634Z,101378.50
2024-03-06T02:24:53.353Z,101383.09
2024-03-06T02:27:20.092Z,101376.97
2024-03-06T02:29:46.801Z,101383.44
2024-03-06T02:32:15.485Z,101378.31
2024-03-06T02:34:42.473Z,101373.41
2024-03-06T02:37:09.262Z,101368.56
2024-03-06T02:39:36.050Z,101372.44
2024-03-06T02:42:02.995Z,101379.66
2024-03-06T02:44:29.699Z,101379.81
2024-03-06T02:46:56.821Z,101381.56
2024-03-06T02:49:23.525Z,101385.06
2024-03-06T02:51:50.257Z,101383.50
2024-03-06T02:54:17.058Z,101382.53
2024-03-06T02:56:43.948Z,101377.63
2024-03-06T02:59:10.792Z,101379.88
2024-03-06T03:01:37.719Z,101377.25
2024-03-06T03:04:04.587Z,101376.09
2024-03-06T03:06:31.390Z,101382.88
2024-03-06T03:08:58.176Z,101381.19
2024-03-06T03:11:24.897Z,101381.91
2024-03-06T03:13:51.680Z,101381.88
2024-03-06T03:16:21.923Z,101388.94
2024-03-06T03:18:51.558Z,101389.22
2024-03-06T03:21:18.268Z,101389.22
2024-03-06T03:23:44.993Z,101387.06
2024-03-06T03:26:14.674Z,101389.91
2024-03-06T03:28:41.726Z,101398.84
2024-03-06T03:31:10.297Z,101400.03
2024-03-06T03:33:40.224Z,101397.78
2024-03-06T03:36:10.271Z,101401.44
2024-03-06T03:38:39.780Z,101397.53
2024-03-06T03:41:18.024Z,101401.81
2024-03-06T03:43:44.918Z,101402.44
2024-03-06T03:46:11.653Z,101409.41
2024-03-06T03:48:39.125Z,101397.94
2024-03-06T03:51:06.950Z,101408.78
2024-03-06T03:53:36.996Z,101411.13
2024-03-06T03:56:04.958Z,101406.97
2024-03-06T03:58:32.076Z,101408.09
2024-03-06T04:00:58.929Z,101410.91
2024-03-06T04:03:25.904Z,101414.69
2024-03-06T04:05:53.008Z,101419.69
2024-03-06T04:08:20.097Z,101421.66
2024-03-06T04:10:46.988Z,101422.56
2024-03-06T04:13:14.339Z,101426.91
2024-03-06T04:15:41.257Z,101426.78
2024-03-06T04:18:08.168Z,101431.97
2024-03-06T04:20:35.574Z,101428.50
2024-03-06T04:23:02.404Z,101433.03
2024-03-06T04:25:29.148Z,101440.03
2024-03-06T04:27:55.985Z,101440.19
2024-03-06T04:30:22.752Z,101437.75
2024-03-06T04:32:49.565Z,101436.09
2024-03-06T04:35:17.094Z,101443.75
2024-03-06T04:37:45.583Z,101451.13
2024-03-06T04:40:13.112Z,101451.31
2024-03-06T04:42:39.869Z,101458.25
2024-03-06T04:45:27.045Z,101456.25
2024-03-06T04:47:53.847Z,101464.53
2024-03-06T04:50:20.671Z,101470.09
2024-03-06T04:52:47.630Z,101472.84
2024-03-06T04:55:16.351Z,101473.47
2024-03-06T04:57:47.195Z,101476.00
2024-03-06T05:00:14.638Z,101478.34
2024-03-06T05:59:06.056Z,101538.56
2024-03-06T06:01:32.909Z,101551.06
2024-03-06T06:04:03.241Z,101544.94
2024-03-06T06:06:31.451Z,101549.41
2024-03-06T06:08:58.189Z,101551.88
2024-03-06T06:11:24.919Z,101552.53
2024-03-06T06:13:51.683Z,101556.63
2024-03-06T06:16:18.544Z,101557.47
2024-03-06T06:18:45.235Z,101557.19
2024-03-06T06:21:11.983Z,101561.41
2024-03-06T06:23:40.364Z,101567.00
2024-03-06T06:26:07.159Z,101574.72
2024-03-06T06:28:33.913Z,101572.88
2024-03-06T06:31:00.788Z,101575.59
2024-03-06T06:33:27.578Z,101584.97
2024-03-06T06:36:00.338Z,101586.81
2024-03-06T06:38:27.117Z,101594.66
2024-03-06T06:40:53.997Z,101601.50
2024-03-06T06:43:20.781Z,101602.50
2024-03-06T06:45:47.618Z,101599.16
2024-03-06T06:48:14.536Z,101604.66
2024-03-06T06:50:41.407Z,101608.50
2024-03-06T06:53:08.367Z,101612.84
2024-03-06T06:55:35.113Z,101608.63
2024-03-06T06:58:01.812Z,101613.88
2024-03-06T07:00:29.807Z,101615.56
2024-03-06T07:03:02.581Z,101619.00
2024-03-06T07:05:29.454Z,101621.72
2024-03-06T07:07:57.069Z,101627.81
2024-03-06T07:10:24.850Z,101625.16
2024-03-06T07:12:51.998Z,101624.75
2024-03-06T07:15:19.102Z,101631.00
2024-03-06T07:17:46.104Z,101636.97
2024-03-06T07:20:13.191Z,101639.59
2024-03-06T07:22:39.983Z,101651.63
2024-03-06T07:25:06.983Z,101647.25
2024-03-06T07:27:33.769Z,101649.63
2024-03-06T07:30:00.512Z,101648.13
2024-03-06T07:32:27.357Z,101652.53
2024-03-06T07:34:54.350Z,101650.78
2024-03-06T07:37:21.203Z,101655.94
2024-03-06T07:39:50.472Z,101658.34
2024-03-06T07:42:19.385Z,101655.72
2024-03-06T07:44:46.214Z,101657.94
2024-03-06T07:47:13.554Z,101661.34
2024-03-06T07:49:40.379Z,101664.66
2024-03-06T07:52:07.125Z,101666.38
2024-03-06T07:54:34.474Z,101668.00
2024-03-06T07:57:01.295Z,101668.66
2024-03-06T07:59:28.442Z,101669.50
2024-03-06T08:01:57.278Z,101680.16
2024-03-06T08:04:24.739Z,101672.13
2024-03-06T08:06:51.536Z,101677.13
2024-03-06T08:09:18.370Z,101680.53
2024-03-06T08:11:45.365Z,101683.78
2024-03-06T08:14:12.177Z,101690.69
2024-03-06T08:16:39.044Z,101694.91
2024-03-06T08:19:05.788Z,101697.31
2024-03-06T08:21:32.597Z,101704.13
2024-03-06T08:23:59.329Z,101703.34
2024-03-06T08:26:26.120Z,101714.53
2024-03-06T08:28:53.871Z,101713.59
2024-03-06T08:31:22.975Z,101711.94
2024-03-06T08:33:50.060Z,101719.69
2024-03-06T08:36:16.925Z,101721.34
2024-03-06T08:38:43.794Z,101719.50
2024-03-06T08:41:10.719Z,101722.97
2024-03-06T08:43:37.602Z,101728.50
2024-03-06T08:46:04.557Z,101727.44
2024-03-06T08:48:31.584Z,101730.16
2024-03-06T08:50:58.371Z,101738.31
2024-03-06T08:53:25.381Z,101735.47
2024-03-06T08:55:52.190Z,101743.22
2024-03-06T08:58:18.946Z,101747.28
2024-03-06T09:00:45.835Z,101744.44
2024-03-06T09:03:13.365Z,101753.03
2024-03-06T09:05:40.100Z,101752.19
2024-03-06T09:08:10.454Z,101749.47
2024-03-06T09:10:37.546Z,101756.47
2024-03-06T09:13:04.514Z,101760.94
2024-03-06T09:15:31.307Z,101762.84
2024-03-06T09:17:59.037Z,101768.94
2024-03-06T09:20:26.059Z,101765.13
2024-03-06T09:22:55.545Z,101767.81
2024-03-06T09:25:22.413Z,101772.91
2024-03-06T09:27:49.715Z,101771.84
2024-03-06T09:30:17.397Z,101781.19
2024-03-06T09:32:45.836Z,101777.66
2024-03-06T09:35:13.430Z,101777.66
2024-03-06T09:37:40.205Z,101774.53
2024-03-06T09:40:09.038Z,101780.53
2024-03-06T09:42:35.881Z,101777.41
2024-03-06T09:45:03.400Z,101783.56
2024-03-06T09:47:33.978Z,101784.34
2024-03-06T09:50:03.141Z,101789.09
2024-03-06T09:52:30.371Z,101792.03
2024-03-06T09:54:57.558Z,101791.81
2024-03-06T09:57:24.400Z,101802.28
2024-03-06T09:59:51.659Z,101800.34
2024-03-06T10:02:40.380Z,101793.06
2024-03-06T10:05:08.482Z,101803.22
2024-03-06T10:07:35.346Z,101806.72
2024-03-06T10:10:02.133Z,101795.00
2024-03-06T10:12:30.848Z,101806.63
2024-03-06T10:14:58.674Z,101803.69
2024-03-06T10:17:28.980Z,101807.97
2024-03-06T10:19:56.303Z,101805.44
2024-03-06T10:22:25.863Z,101810.78
2024-03-06T10:24:57.576Z,101808.56
2024-03-06T10:27:24.394Z,101809.06
2024-03-06T10:30:06.042Z,101807.56
2024-03-06T10:32:33.527Z,101818.00
2024-03-06T10:35:00.547Z,101809.13
2024-03-06T10:37:27.713Z,101810.41
2024-03-06T10:39:57.306Z,101816.19
2024-03-06T10:42:25.158Z,101817.50
2024-03-06T10:44:56.981Z,101820.50
2024-03-06T10:47:24.689Z,101820.00
2024-03-06T10:49:51.825Z,101829.22
2024-03-06T10:52:20.216Z,101828.34
2024-03-06T10:54:47.776Z,101828.03
2024-03-06T10:57:15.703Z,101827.00
2024-03-06T10:59:43.840Z,101830.00
2024-03-06T11:02:11.487Z,101821.72
2024-03-06T11:04:41.981Z,101818.31
2024-03-06T11:07:12.531Z,101822.06
2024-03-06T11:09:41.543Z,101829.22
2024-03-06T11:12:08.888Z,101833.13
2024-03-06T11:14:40.209Z,101832.00
2024-03-06T11:17:11.410Z,101833.84
2024-03-06T11:20:01.307Z,101833.00
2024-03-06T11:23:01.489Z,101830.78
2024-03-06T11:25:47.349Z,101825.31
2024-03-06T11:28:42.445Z,101837.47
2024-03-06T11:31:20.313Z,101840.50
2024-03-06T11:33:48.646Z,101830.22
2024-03-06T11:36:22.581Z,101839.94
2024-03-06T11:38:51.859Z,101828.84
2024-03-06T11:41:20.053Z,101831.69
2024-03-06T11:43:49.711Z,101835.13
2024-03-06T11:46:16.462Z,101834.34
2024-03-06T11:48:43.274Z,101834.06
2024-03-06T11:51:10.411Z,101828.97
2024-03-06T11:53:42.826Z,101832.22
2024-03-06T11:56:09.654Z,101828.88
2024-03-06T11:58:36.468Z,101828.75
2024-03-06T12:01:03.477Z,101823.16
2024-03-06T12:03:30.328Z,101823.75
2024-03-06T12:05:57.447Z,101831.41
2024-03-06T12:08:25.165Z,101825.09
2024-03-06T12:10:53.227Z,101820.13
2024-03-06T12:13:22.256Z,101829.97
2024-03-06T12:15:49.155Z,101832.66
2024-03-06T12:18:18.714Z,101837.81
2024-03-06T12:20:47.396Z,101837.28
2024-03-06T12:23:23.394Z,101844.50
2024-03-06T12:26:01.569Z,101841.94
2024-03-06T12:28:32.393Z,101835.63
2024-03-06T12:31:02.962Z,101838.78
2024-03-06T12:33:29.955Z,101835.31
2024-03-06T12:36:07.783Z,101844.34
2024-03-06T12:38:34.882Z,101832.00
2024-03-06T12:41:01.898Z,101841.38
2024-03-06T12:43:30.337Z,101839.38
2024-03-06T12:46:00.544Z,101837.00
2024-03-06T12:48:31.460Z,101829.47
2024-03-06T12:51:06.662Z,101834.84
2024-03-06T12:53:36.897Z,101835.13
2024-03-06T12:56:04.284Z,101836.19
2024-03-06T12:58:32.662Z,101833.91
2024-03-06T13:01:00.211Z,101824.13
2024-03-06T13:03:27.153Z,101826.03
2024-03-06T13:05:54.048Z,101820.28
2024-03-06T13:08:21.028Z,101818.81
2024-03-06T13:10:48.052Z,101815.38
2024-03-06T13:13:14.848Z,101820.56
2024-03-06T13:15:41.681Z,101821.06
2024-03-06T13:18:08.755Z,101825.53
2024-03-06T13:20:35.797Z,101828.41
2024-03-06T13:23:02.793Z,101826.38
2024-03-06T13:25:30.362Z,101819.72
2024-03-06T13:27:57.193Z,101826.50
2024-03-06T13:30:24.947Z,101827.38
2024-03-06T13:32:51.961Z,101828.25
2024-03-06T13:35:18.912Z,101825.75
2024-03-06T13:37:45.905Z,101825.66
2024-03-06T13:40:14.710Z,101824.69
2024-03-06T13:42:42.300Z,101827.47
2024-03-06T13:45:15.869Z,101824.34
2024-03-06T13:47:44.338Z,101817.16
2024-03-06T13:50:12.939Z,101824.94
2024-03-06T13:52:40.414Z,101821.84
2024-03-06T13:55:08.117Z,101817.00
2024-03-06T13:57:36.116Z,101822.09
2024-03-06T14:00:13.998Z,101827.28
2024-03-06T14:02:41.353Z,101826.16
2024-03-06T14:05:08.692Z,101824.78
2024-03-06T14:07:36.097Z,101828.25
2024-03-06T14:10:06.104Z,101825.72
2024-03-06T14:12:33.471Z,101831.34
2024-03-06T14:15:00.324Z,101823.16
2024-03-06T14:17:27.185Z,101829.53
2024-03-06T14:19:54.037Z,101835.63
2024-03-06T14:22:20.776Z,101829.78
2024-03-06T14:24:47.670Z,101829.06
2024-03-06T14:27:17.405Z,101828.69
2024-03-06T14:29:44.699Z,101840.94
2024-03-06T14:32:12.064Z,101836.88
2024-03-06T14:34:38.982Z,101843.59
2024-03-06T14:37:05.825Z,101835.97
2024-03-06T14:39:32.679Z,101837.16
2024-03-06T14:41:59.469Z,101841.41
2024-03-06T14:44:26.250Z,101850.19
2024-03-06T14:46:53.381Z,101837.44
2024-03-06T14:49:20.162Z,101833.31
2024-03-06T14:51:46.926Z,101845.91
2024-03-06T14:54:13.806Z,101829.88
2024-03-06T14:56:41.185Z,101839.38
2024-03-06T14:59:08.541Z,101839.34
2024-03-06T15:01:35.762Z,101832.88
2024-03-06T15:04:02.566Z,101845.78
2024-03-06T15:06:29.376Z,101839.63
2024-03-06T15:08:59.207Z,101847.59
2024-03-06T15:11:26.220Z,101851.88
2024-03-06T15:13:53.038Z,101844.81
2024-03-06T15:16:19.864Z,101846.59
2024-03-06T15:18:48.415Z,101851.94
2024-03-06T15:21:15.550Z,101850.44
2024-03-06T15:23:42.395Z,101854.84
2024-03-06T15:26:09.231Z,101847.91
2024-03-06T15:28:36.027Z,101850.75
2024-03-06T15:31:05.188Z,101858.09
2024-03-06T15:33:32.191Z,101857.25
2024-03-06T15:36:01.306Z,101852.69
2024-03-06T15:38:28.407Z,101852.19
2024-03-06T15:40:55.207Z,101862.09
2024-03-06T15:43:22.040Z,101862.19
2024-03-06T15:45:48.785Z,101856.16
2024-03-06T15:48:16.240Z,101859.81
2024-03-06T15:50:43.711Z,101860.78
2024-03-06T15:53:11.194Z,101860.91
2024-03-06T15:55:37.955Z,101864.72
2024-03-06T15:58:05.573Z,101869.34
2024-03-06T16:00:32.758Z,101861.44
2024-03-06T16:03:00.050Z,101859.66
2024-03-06T16:05:27.676Z,101865.25
2024-03-06T16:08:05.450Z,101864.41
2024-03-06T16:10:33.092Z,101861.66
2024-03-06T16:12:59.891Z,101864.47
2024-03-06T16:15:26.747Z,101864.63
2024-03-06T16:17:53.673Z,101866.63
2024-03-06T16:20:21.611Z,101872.03
2024-03-06T16:22:48.592Z,101872.16
2024-03-06T16:25:15.632Z,101877.41
2024-03-06T16:27:42.433Z,101874.81
2024-03-06T16:30:10.862Z,101881.00
2024-03-06T16:32:37.724Z,101881.94
2024-03-06T16:35:05.600Z,101884.47
2024-03-06T16:37:33.832Z,101884.66
2024-03-06T16:40:01.460Z,101891.06
2024-03-06T16:42:28.230Z,101888.56
2024-03-06T16:44:55.623Z,101892.22
2024-03-06T16:47:22.395Z,101888.06
2024-03-06T16:49:49.209Z,101894.38
2024-03-06T16:52:15.946Z,101900.53
2024-03-06T16:54:43.303Z,101897.25
2024-03-06T16:57:12.484Z,101901.00
2024-03-06T16:59:39.632Z,101897.25
2024-03-06T17:02:06.796Z,101898.31
2024-03-06T17:04:33.680Z,101899.97
2024-03-06T17:07:02.603Z,101901.91
2024-03-06T17:09:29.608Z,101907.44
2024-03-06T17:11:56.513Z,101912.94
2024-03-06T17:14:23.445Z,101919.28
2024-03-06T17:16:50.255Z,101909.63
2024-03-06T17:19:17.487Z,101918.41
2024-03-06T17:21:44.232Z,101915.06
2024-03-06T17:24:11.724Z,101917.72
2024-03-06T17:26:39.892Z,101928.53
2024-03-06T17:29:09.734Z,101933.72
2024-03-06T17:31:36.615Z,101931.34
2024-03-06T17:34:03.739Z,101938.56
2024-03-06T17:36:33.603Z,101934.06
2024-03-06T17:39:01.613Z,101936.00
2024-03-06T17:41:28.657Z,101941.38
2024-03-06T17:43:55.377Z,101941.44
2024-03-06T17:46:22.161Z,101944.22
2024-03-06T17:48:49.692Z,101944.34
2024-03-06T17:51:16.740Z,101948.09
2024-03-06T17:53:43.770Z,101951.97
2024-03-06T17:56:10.590Z,101958.06
2024-03-06T17:58:37.345Z,101958.06
2024-03-06T18:01:06.544Z,101960.75
2024-03-06T18:03:33.727Z,101968.19
2024-03-06T18:06:00.502Z,101965.59
2024-03-06T18:08:28.554Z,101967.47
2024-03-06T18:10:55.521Z,101966.66
2024-03-06T18:13:22.250Z,101965.47
2024-03-06T18:15:49.003Z,101978.81
2024-03-06T18:18:16.074Z,101975.50
2024-03-06T18:20:43.485Z,101978.09
2024-03-06T18:23:12.842Z,101978.25
2024-03-06T18:25:40.274Z,101982.63
2024-03-06T18:28:07.122Z,101988.19
2024-03-06T18:30:34.060Z,101982.09
2024-03-06T18:33:01.291Z,101984.13
2024-03-06T18:35:28.240Z,101981.63
2024-03-06T18:37:55.662Z,101979.06
2024-03-06T18:40:24.242Z,101989.84
2024-03-06T18:42:51.075Z,101990.91
2024-03-06T18:45:18.953Z,101994.81
2024-03-06T18:47:47.678Z,102000.22
2024-03-06T18:50:14.807Z,102005.31
2024-03-06T18:52:41.679Z,102010.91
2024-03-06T18:55:09.213Z,102013.56
2024-03-06T18:57:35.968Z,102006.53
2024-03-06T19:00:03.795Z,102009.31
2024-03-06T19:02:30.598Z,102007.34
2024-03-06T19:04:57.605Z,102011.22
2024-03-06T19:07:24.979Z,102012.25
2024-03-06T19:09:53.223Z,102011.47
2024-03-06T19:12:20.077Z,102014.22
2024-03-06T19:14:47.028Z,102011.94
2024-03-06T19:17:17.706Z,102014.59
2024-03-06T19:19:44.576Z,102015.66
2024-03-06T19:22:11.431Z,102013.16
2024-03-06T19:24:41.098Z,102020.13
2024-03-06T19:27:07.813Z,102019.41
2024-03-06T19:29:34.598Z,102026.38
2024-03-06T19:32:02.171Z,102028.16
2024-03-06T19:34:29.717Z,102030.84
2024-03-06T19:36:57.097Z,102025.53
2024-03-06T19:39:24.530Z,102023.03
2024-03-06T19:41:53.909Z,102024.91
2024-03-06T19:44:29.750Z,102023.31
2024-03-06T19:46:56.543Z,102031.50
2024-03-06T19:49:23.605Z,102034.31
2024-03-06T19:51:51.427Z,102035.97
2024-03-06T19:54:18.198Z,102031.53
2024-03-06T19:56:45.013Z,102040.41
2024-03-06T19:59:11.881Z,102037.66
2024-03-06T20:01:39.229Z,102044.19
2024-03-06T20:04:06.620Z,102039.13
2024-03-06T20:06:33.500Z,102042.59
2024-03-06T20:09:00.320Z,102047.91
2024-03-06T20:11:28.552Z,102041.72
2024-03-06T20:13:55.445Z,102039.97
2024-03-06T20:16:22.307Z,102041.03
2024-03-06T20:18:49.168Z,102041.94
2024-03-06T20:21:15.986Z,102029.69
2024-03-06T20:23:43.225Z,102048.47
2024-03-06T20:26:10.283Z,102046.59
2024-03-06T20:28:37.163Z,102034.91
2024-03-06T20:31:04.263Z,102034.78
2024-03-06T20:33:33.990Z,102038.16
2024-03-06T20:36:00.804Z,102043.06
2024-03-06T20:38:27.591Z,102044.09
2024-03-06T20:40:54.422Z,102036.16
2024-03-06T20:43:22.992Z,102043.28
2024-03-06T20:45:51.880Z,102040.75
2024-03-06T20:48:19.048Z,102033.75
2024-03-06T20:50:45.909Z,102039.19
2024-03-06T20:53:12.928Z,102043.56
2024-03-06T20:55:39.734Z,102038.47
2024-03-06T20:58:06.620Z,102033.06
2024-03-06T21:00:33.667Z,102039.22
2024-03-06T21:03:00.570Z,102033.38
2024-03-06T21:05:27.439Z,102036.09
2024-03-06T21:07:54.164Z,102042.41
2024-03-06T21:10:20.960Z,102039.13
2024-03-06T21:12:50.784Z,102033.97
2024-03-06T21:15:17.770Z,102032.03
2024-03-06T21:17:44.965Z,102035.63
2024-03-06T21:20:12.776Z,102034.00
2024-03-06T21:22:44.304Z,102039.38
2024-03-06T21:25:12.699Z,102034.09
2024-03-06T21:27:40.210Z,102036.13
2024-03-06T21:30:08.432Z,102030.22
2024-03-06T21:32:35.998Z,102032.69
2024-03-06T21:35:03.066Z,102034.56
2024-03-06T21:37:29.906Z,102033.75
2024-03-06T21:39:56.682Z,102041.81
2024-03-06T21:42:23.580Z,102033.75
2024-03-06T21:44:51.936Z,102030.69
2024-03-06T21:47:18.906Z,102029.88
2024-03-06T21:49:45.853Z,102029.19
2024-03-06T21:52:13.557Z,102025.56
2024-03-06T21:54:40.518Z,102034.47
2024-03-06T21:57:12.590Z,102032.75
2024-03-06T21:59:40.642Z,102036.28
2024-03-06T22:02:08.434Z,102030.97
2024-03-06T22:04:35.325Z,102030.03
2024-03-06T22:07:02.059Z,102038.06
2024-03-06T22:09:28.865Z,102041.56
2024-03-06T22:11:55.664Z,102040.94
2024-03-06T22:14:22.563Z,102041.84
2024-03-06T22:16:49.355Z,102046.03
2024-03-06T22:19:16.139Z,102045.31
2024-03-06T22:21:42.938Z,102039.25
2024-03-06T22:24:09.779Z,102042.78
2024-03-06T22:26:36.677Z,102043.19
2024-03-06T22:29:04.938Z,102041.63
2024-03-06T22:31:31.704Z,102047.13
2024-03-06T22:33:58.527Z,102054.31
2024-03-06T22:36:27.127Z,102053.44
2024-03-06T22:38:54.484Z,102050.97
2024-03-06T22:41:22.816Z,102044.81
2024-03-06T22:43:50.139Z,102050.97
2024-03-06T22:46:17.094Z,102050.84
2024-03-06T22:48:44.106Z,102049.16
2024-03-06T22:51:12.328Z,102055.84
2024-03-06T22:53:39.322Z,102047.94
2024-03-06T22:56:06.906Z,102054.34
2024-03-06T22:58:33.662Z,102056.44
2024-03-06T23:01:00.493Z,102059.28
2024-03-06T23:03:27.650Z,102055.16
2024-03-06T23:05:54.570Z,102056.25
2024-03-06T23:08:21.442Z,102055.63
2024-03-06T23:10:48.218Z,102055.94
2024-03-06T23:13:18.824Z,102058.72
2024-03-06T23:15:49.783Z,102054.38
2024-03-06T23:18:16.660Z,102057.09
2024-03-06T23:20:43.513Z,102058.03
2024-03-06T23:23:10.672Z,102056.41
2024-03-06T23:25:37.448Z,102055.50
2024-03-06T23:28:04.450Z,102059.00
2024-03-06T23:30:31.244Z,102059.91
2024-03-06T23:32:58.078Z,102057.28
2024-03-06T23:35:24.993Z,102058.16
2024-03-06T23:37:52.475Z,102060.09
2024-03-06T23:40:19.651Z,102068.91
2024-03-06T23:42:48.017Z,102062.00
2024-03-06T23:45:16.281Z,102054.88
2024-03-06T23:47:44.982Z,102054.00
2024-03-06T23:50:12.300Z,102052.28
2024-03-06T23:52:39.210Z,102060.25
2024-03-06T23:55:11.527Z,102054.97
2024-03-06T23:57:38.270Z,102056.88
